Time;durP1;ratioP1;P1;durP2;ratioP2;P2;SDS_P1;SDS_P2;PMS_P1;PMS_P2;Temp;Humidity;BMP_temperature;BMP_pressure;BME280_temperature;BME280_humidity;BME280_pressure;Samples;Min_cycle;Max_cycle;Signal;HPM_P1;HPM_P2
2023/04/29 00:01:35;;;;;;;48.50;22.25;;;;;;;10.74;100.00;100907.00;4992396;28;20051;-74
2023/04/29 00:04:01;;;;;;;46.97;22.88;;;;;;;10.73;100.00;100911.75;4991242;28;22066;-75
2023/04/29 00:06:29;;;;;;;50.97;23.65;;;;;;;10.67;100.00;100918.97;5004911;28;20042;-75
2023/04/29 00:08:56;;;;;;;44.20;20.20;;;;;;;10.59;100.00;100914.69;5001192;28;20054;-76
2023/04/29 00:11:22;;;;;;;53.13;25.45;;;;;;;10.54;100.00;100908.81;4994703;28;20046;-75
2023/04/29 00:13:49;;;;;;;49.95;21.98;;;;;;;10.59;100.00;100919.47;4988527;28;20069;-75
2023/04/29 00:16:16;;;;;;;56.78;24.95;;;;;;;10.47;100.00;100911.66;4998844;28;20060;-76
2023/04/29 00:18:42;;;;;;;42.72;18.15;;;;;;;10.46;100.00;100919.19;4997418;28;20142;-75
2023/04/29 00:21:09;;;;;;;59.85;27.08;;;;;;;10.50;100.00;100916.38;4997194;28;20057;-76
2023/04/29 00:23:35;;;;;;;59.55;26.33;;;;;;;10.44;100.00;100932.72;4996038;28;20084;-76
2023/04/29 00:26:02;;;;;;;54.08;22.60;;;;;;;10.33;100.00;100918.13;4982438;28;20050;-77
2023/04/29 00:28:29;;;;;;;58.60;25.30;;;;;;;10.39;100.00;100933.16;4978920;28;20420;-77
2023/04/29 00:30:55;;;;;;;58.05;26.83;;;;;;;10.36;100.00;100939.53;4997060;28;20480;-74
2023/04/29 00:33:22;;;;;;;66.30;28.25;;;;;;;10.34;100.00;100933.63;4980737;28;20057;-75
2023/04/29 00:35:49;;;;;;;61.42;24.95;;;;;;;10.31;100.00;100942.78;4989805;28;20061;-75
2023/04/29 00:38:16;;;;;;;69.90;28.17;;;;;;;10.32;100.00;100941.56;4990210;28;20141;-75
2023/04/29 00:40:43;;;;;;;70.38;28.27;;;;;;;10.32;100.00;100944.34;4983184;28;20054;-73
2023/04/29 00:43:09;;;;;;;69.75;29.08;;;;;;;10.32;100.00;100949.91;4986223;28;20058;-76
2023/04/29 00:45:36;;;;;;;75.03;30.85;;;;;;;10.26;100.00;100954.31;4991614;28;20046;-76
2023/04/29 00:48:03;;;;;;;68.43;25.92;;;;;;;10.22;100.00;100953.56;4981297;28;20134;-74
2023/04/29 00:50:29;;;;;;;63.25;26.05;;;;;;;10.27;100.00;100955.91;4992678;28;20058;-75
2023/04/29 00:52:56;;;;;;;66.55;28.63;;;;;;;10.16;100.00;100960.75;5001525;28;20050;-75
2023/04/29 00:55:25;;;;;;;74.28;33.63;;;;;;;10.19;100.00;100959.94;4989375;28;20050;-76
2023/04/29 00:57:51;;;;;;;81.05;33.83;;;;;;;10.17;100.00;100964.31;4997902;28;20469;-75
2023/04/29 01:00:19;;;;;;;75.53;31.20;;;;;;;10.02;100.00;100946.19;4993506;28;20563;-74
2023/04/29 01:02:47;;;;;;;76.05;31.45;;;;;;;10.04;100.00;100969.56;5006092;28;20050;-75
2023/04/29 01:05:14;;;;;;;71.95;31.25;;;;;;;10.07;100.00;100972.31;4994915;28;20058;-73
2023/04/29 01:08:05;;;;;;;44.10;16.77;;;;;;;10.02;100.00;100969.19;5003365;28;20396;-75
2023/04/29 01:10:38;;;;;;;87.40;33.42;;;;;;;10.06;100.00;100969.94;4991629;28;20046;-73
2023/04/29 01:13:25;;;;;;;88.35;36.75;;;;;;;10.05;100.00;100973.94;4994359;28;20390;-73
2023/04/29 01:16:02;;;;;;;75.00;30.75;;;;;;;9.93;100.00;100983.50;4996200;28;20061;-75
2023/04/29 01:18:33;;;;;;;51.97;18.40;;;;;;;9.86;100.00;100977.22;4981416;28;20062;-75
2023/04/29 01:21:00;;;;;;;81.53;30.98;;;;;;;9.89;100.00;100981.94;4993854;28;20053;-75
2023/04/29 01:23:28;;;;;;;70.95;30.27;;;;;;;9.91;100.00;100990.66;4982896;28;20134;-74
2023/04/29 01:25:56;;;;;;;87.07;35.63;;;;;;;9.89;100.00;100990.25;4990511;28;20050;-73
2023/04/29 01:28:58;;;;;;;88.35;33.30;;;;;;;9.92;100.00;100987.47;5000270;28;20065;-75
2023/04/29 01:31:40;;;;;;;75.63;27.58;;;;;;;9.91;100.00;100991.47;4997879;28;20038;-75
2023/04/29 01:34:35;;;;;;;78.07;28.05;;;;;;;9.90;100.00;101005.75;4987306;28;20050;-75
2023/04/29 01:37:34;;;;;;;79.95;26.77;;;;;;;9.78;100.00;100995.09;4970522;28;20819;-77
2023/04/29 01:40:18;;;;;;;91.97;36.00;;;;;;;9.77;100.00;101002.66;4980023;28;21087;-75
2023/04/29 01:42:50;;;;;;;93.18;37.78;;;;;;;9.74;100.00;101009.00;4998661;28;20057;-73
2023/04/29 01:45:18;;;;;;;91.82;34.05;;;;;;;9.64;100.00;101009.06;4980987;28;20054;-76
2023/04/29 01:47:46;;;;;;;65.20;24.25;;;;;;;9.60;100.00;101008.28;4995752;28;20134;-74
2023/04/29 01:50:12;;;;;;;85.35;32.25;;;;;;;9.58;100.00;101005.91;4996481;28;20397;-76
2023/04/29 01:52:39;;;;;;;89.80;35.20;;;;;;;9.60;100.00;101011.06;4980898;28;20043;-73
2023/04/29 01:55:06;;;;;;;75.28;28.60;;;;;;;9.52;100.00;101010.31;4985403;28;20053;-73
2023/04/29 01:57:33;;;;;;;94.80;34.80;;;;;;;9.62;100.00;101017.00;4991452;28;20431;-73
2023/04/29 02:00:01;;;;;;;79.25;29.90;;;;;;;9.55;100.00;101015.03;4992876;28;20121;-76
2023/04/29 02:02:27;;;;;;;84.00;31.23;;;;;;;9.44;100.00;101019.06;4982364;28;20080;-73
2023/04/29 02:04:54;;;;;;;91.07;34.88;;;;;;;9.51;100.00;101024.56;4992991;28;20050;-73
2023/04/29 02:07:21;;;;;;;94.70;31.05;;;;;;;9.47;100.00;101018.25;5002437;28;20579;-73
2023/04/29 02:09:48;;;;;;;72.53;29.77;;;;;;;9.44;100.00;101021.84;5001279;28;20151;-74
2023/04/29 02:12:14;;;;;;;79.22;29.75;;;;;;;9.42;100.00;101029.78;4999683;28;20416;-73
2023/04/29 02:14:41;;;;;;;72.03;26.98;;;;;;;9.43;100.00;101026.56;4995519;28;20057;-74
2023/04/29 02:17:07;;;;;;;68.72;24.42;;;;;;;9.35;100.00;101027.00;4988653;28;20057;-76
2023/04/29 02:19:34;;;;;;;71.35;29.90;;;;;;;9.41;100.00;101033.72;4983430;28;20056;-75
2023/04/29 02:22:00;;;;;;;60.75;26.20;;;;;;;9.39;100.00;101038.91;5001972;28;20133;-74
2023/04/29 02:24:27;;;;;;;57.00;22.63;;;;;;;9.41;100.00;101039.28;5007723;28;20046;-75
2023/04/29 02:26:54;;;;;;;55.05;24.00;;;;;;;9.43;100.00;101045.22;5001442;28;20046;-76
2023/04/29 02:29:20;;;;;;;53.78;22.27;;;;;;;9.44;100.00;101039.28;4984699;28;20518;-74
2023/04/29 02:31:47;;;;;;;54.53;23.77;;;;;;;9.45;100.00;101042.84;4990555;28;20508;-75
2023/04/29 02:34:13;;;;;;;50.90;22.30;;;;;;;9.45;100.00;101049.19;4990988;28;20051;-79
2023/04/29 02:36:40;;;;;;;53.75;22.75;;;;;;;9.43;100.00;101054.34;4992044;28;20496;-76
2023/04/29 02:39:06;;;;;;;57.05;24.98;;;;;;;9.41;100.00;101051.19;4999928;28;20057;-75
2023/04/29 02:41:33;;;;;;;60.78;24.58;;;;;;;9.45;100.00;101059.47;4996561;28;20125;-75
2023/04/29 02:43:59;;;;;;;65.05;25.35;;;;;;;9.41;100.00;101058.72;4996154;28;20049;-75
2023/04/29 02:46:25;;;;;;;66.35;26.98;;;;;;;9.29;100.00;101064.72;4994157;28;20050;-76
2023/04/29 02:48:52;;;;;;;71.07;28.95;;;;;;;9.29;100.00;101067.47;4992869;28;20539;-74
2023/04/29 02:51:19;;;;;;;68.63;27.63;;;;;;;9.30;100.00;101069.06;5004196;28;20053;-75
2023/04/29 02:53:45;;;;;;;64.32;26.23;;;;;;;9.26;100.00;101079.38;4997320;28;20054;-73
2023/04/29 02:56:11;;;;;;;60.30;25.05;;;;;;;9.21;100.00;101068.66;5005767;28;20054;-74
2023/04/29 02:58:38;;;;;;;63.25;27.13;;;;;;;9.21;100.00;101074.22;4993594;28;20060;-72
2023/04/29 03:01:05;;;;;;;59.65;25.90;;;;;;;9.21;100.00;101077.00;5007727;28;20049;-72
2023/04/29 03:03:31;;;;;;;28.10;11.13;;;;;;;9.13;100.00;101079.00;4983675;28;20052;-72
2023/04/29 03:05:58;;;;;;;54.55;22.85;;;;;;;9.19;100.00;101076.63;4986203;28;20058;-74
2023/04/29 03:08:25;;;;;;;49.58;19.88;;;;;;;9.08;100.00;101071.06;5004832;28;20110;-76
2023/04/29 03:10:51;;;;;;;52.03;22.08;;;;;;;9.13;100.00;101080.97;4990223;28;20061;-74
2023/04/29 03:13:18;;;;;;;49.85;20.58;;;;;;;9.08;100.00;101086.94;5002229;28;20073;-73
2023/04/29 03:15:44;;;;;;;53.90;22.98;;;;;;;9.06;100.00;101084.56;4981422;28;20042;-73
2023/04/29 03:18:11;;;;;;;59.10;24.10;;;;;;;9.11;100.00;101086.13;4997052;28;20417;-77
2023/04/29 03:20:37;;;;;;;53.45;23.23;;;;;;;9.09;100.00;101080.19;5000337;28;20062;-73
2023/04/29 03:23:04;;;;;;;52.55;21.85;;;;;;;9.02;100.00;101089.31;4982767;28;20051;-75
2023/04/29 03:25:30;;;;;;;54.72;24.35;;;;;;;9.01;100.00;101086.94;4979633;28;20966;-73
2023/04/29 03:27:57;;;;;;;58.08;24.35;;;;;;;8.96;100.00;101096.47;4995139;28;20101;-73
2023/04/29 03:30:23;;;;;;;49.67;20.90;;;;;;;8.87;100.00;101093.28;4995906;28;20053;-73
2023/04/29 03:32:50;;;;;;;59.22;24.65;;;;;;;8.90;100.00;101103.59;4995678;28;20590;-74
2023/04/29 03:35:16;;;;;;;55.53;23.80;;;;;;;8.96;100.00;101103.97;4990710;28;20054;-73
2023/04/29 03:37:43;;;;;;;47.85;19.85;;;;;;;8.91;100.00;101104.38;4999016;28;20050;-74
2023/04/29 03:40:11;;;;;;;51.15;22.50;;;;;;;8.92;100.00;101100.41;4980090;28;20482;-73
2023/04/29 03:42:37;;;;;;;48.58;21.13;;;;;;;8.89;100.00;101104.78;5007197;28;20144;-75
2023/04/29 03:45:04;;;;;;;52.67;23.27;;;;;;;8.94;100.00;101101.59;4990253;28;20054;-76
2023/04/29 03:47:31;;;;;;;53.03;19.85;;;;;;;8.88;100.00;101110.72;4993195;28;20060;-74
2023/04/29 03:49:57;;;;;;;50.17;22.23;;;;;;;8.93;100.00;101113.91;4998941;28;20057;-78
2023/04/29 03:52:24;;;;;;;50.95;23.20;;;;;;;8.93;100.00;101118.63;4983458;28;20136;-75
2023/04/29 03:54:51;;;;;;;51.17;20.67;;;;;;;8.92;100.00;101105.97;5001014;28;20054;-75
2023/04/29 03:57:17;;;;;;;50.20;22.13;;;;;;;8.87;100.00;101117.44;4996156;28;20057;-74
2023/04/29 03:59:44;;;;;;;46.92;20.88;;;;;;;8.88;100.00;101116.28;4985677;28;20054;-74
2023/04/29 04:02:10;;;;;;;52.35;21.75;;;;;;;8.91;100.00;101121.03;4996336;28;20054;-74
2023/04/29 04:04:37;;;;;;;50.65;22.60;;;;;;;8.91;100.00;101119.03;4998766;28;20058;-75
2023/04/29 04:07:04;;;;;;;55.40;24.17;;;;;;;8.97;100.00;101123.00;5004008;28;20058;-74
2023/04/29 04:09:32;;;;;;;44.42;21.00;;;;;;;8.94;100.00;101123.78;5006832;28;20140;-74
2023/04/29 04:11:59;;;;;;;52.45;22.27;;;;;;;8.93;100.00;101124.19;4998291;28;20049;-75
2023/04/29 04:14:26;;;;;;;54.83;22.33;;;;;;;8.95;100.00;101121.81;4989728;28;20081;-74
2023/04/29 04:16:53;;;;;;;51.58;22.00;;;;;;;8.89;100.00;101123.41;4980649;28;20074;-76
2023/04/29 04:19:20;;;;;;;49.35;21.83;;;;;;;8.88;100.00;101133.69;5000097;28;20621;-73
2023/04/29 04:21:46;;;;;;;50.03;21.85;;;;;;;8.82;100.00;101131.72;4997584;28;20061;-74
2023/04/29 04:24:13;;;;;;;48.28;21.77;;;;;;;8.84;100.00;101144.00;4998648;28;20042;-74
2023/04/29 04:26:41;;;;;;;48.03;18.88;;;;;;;8.82;100.00;101145.56;4998649;28;20049;-73
2023/04/29 04:29:07;;;;;;;49.13;22.63;;;;;;;8.87;100.00;101153.50;4992737;28;20143;-73
2023/04/29 04:31:35;;;;;;;56.40;25.20;;;;;;;8.91;100.00;101146.75;5000501;28;20065;-73
2023/04/29 04:34:02;;;;;;;49.00;23.17;;;;;;;8.94;100.00;101154.28;4993545;28;20050;-73
2023/04/29 04:36:28;;;;;;;51.00;23.48;;;;;;;8.91;100.00;101159.84;4992459;28;20053;-73
2023/04/29 04:38:55;;;;;;;49.80;23.45;;;;;;;8.96;100.00;101159.44;4996720;28;20058;-72
2023/04/29 04:41:21;;;;;;;49.95;22.40;;;;;;;8.90;100.00;101163.78;5009592;28;20516;-73
2023/04/29 04:43:48;;;;;;;54.90;24.67;;;;;;;8.94;100.00;101170.94;4993349;28;20058;-73
2023/04/29 04:46:15;;;;;;;47.47;22.23;;;;;;;8.96;100.00;101165.00;4994991;28;20054;-70
2023/04/29 04:48:42;;;;;;;53.45;25.15;;;;;;;8.98;100.00;101165.41;4995256;28;20509;-76
2023/04/29 04:51:10;;;;;;;47.65;23.45;;;;;;;9.03;100.00;101167.75;4998022;28;20050;-74
2023/04/29 04:53:38;;;;;;;57.45;25.75;;;;;;;9.06;100.00;101172.53;4988873;28;20425;-74
2023/04/29 04:56:05;;;;;;;46.45;20.52;;;;;;;9.02;100.00;101178.06;4998781;28;20057;-73
2023/04/29 04:58:32;;;;;;;50.70;23.80;;;;;;;9.05;100.00;101184.81;4999487;28;20055;-76
2023/04/29 05:00:59;;;;;;;53.45;24.38;;;;;;;9.06;100.00;101186.38;4992399;28;20050;-74
2023/04/29 05:03:26;;;;;;;44.72;20.60;;;;;;;9.12;100.00;101187.59;4991136;28;20046;-76
2023/04/29 05:05:57;;;;;;;50.40;21.23;;;;;;;9.10;100.00;101179.66;4984826;28;20054;-74
2023/04/29 05:08:25;;;;;;;49.90;23.80;;;;;;;9.14;100.00;101191.53;4991695;28;20416;-74
2023/04/29 05:10:52;;;;;;;47.05;24.27;;;;;;;9.11;100.00;101192.31;5000211;28;20516;-74
2023/04/29 05:13:20;;;;;;;47.50;22.80;;;;;;;9.14;100.00;101196.28;4998651;28;20096;-74
2023/04/29 05:15:46;;;;;;;50.17;23.90;;;;;;;9.15;100.00;101203.44;4995873;28;20176;-75
2023/04/29 05:18:13;;;;;;;55.35;26.17;;;;;;;9.15;100.00;101201.44;4986846;28;20535;-75
2023/04/29 05:20:39;;;;;;;48.72;23.73;;;;;;;9.17;100.00;101201.03;4998380;28;20508;-76
2023/04/29 05:23:06;;;;;;;50.75;23.60;;;;;;;9.12;100.00;101202.22;4983184;28;20510;-76
2023/04/29 05:25:32;;;;;;;46.25;22.27;;;;;;;9.10;100.00;101203.81;4990911;28;20054;-74
2023/04/29 05:27:59;;;;;;;51.33;23.65;;;;;;;9.06;100.00;101206.59;5005270;28;20049;-75
2023/04/29 05:30:25;;;;;;;50.15;24.70;;;;;;;9.04;100.00;101205.41;4994264;28;20042;-75
2023/04/29 05:32:52;;;;;;;36.72;15.13;;;;;;;8.92;100.00;101200.25;4995632;28;20054;-74
2023/04/29 05:35:19;;;;;;;44.95;21.23;;;;;;;8.92;100.00;101217.66;4984896;28;20058;-74
2023/04/29 05:37:45;;;;;;;51.00;24.10;;;;;;;9.02;100.00;101210.56;4998388;28;20051;-73
2023/04/29 05:40:12;;;;;;;55.80;24.67;;;;;;;9.05;100.00;101221.63;4983287;28;20058;-74
2023/04/29 05:42:38;;;;;;;46.33;22.75;;;;;;;9.03;100.00;101224.03;4998419;28;20050;-74
2023/04/29 05:45:05;;;;;;;54.53;24.23;;;;;;;9.10;100.00;101228.78;4991764;28;20050;-74
2023/04/29 05:47:32;;;;;;;54.55;26.48;;;;;;;9.09;100.00;101227.97;4994993;28;20058;-74
2023/04/29 05:49:58;;;;;;;52.17;27.67;;;;;;;9.12;100.00;101240.28;4993488;28;20051;-73
2023/04/29 05:52:25;;;;;;;51.55;24.00;;;;;;;9.11;100.00;101244.22;4991120;28;20052;-71
2023/04/29 05:54:51;;;;;;;48.85;22.95;;;;;;;9.09;100.00;101241.06;5000550;28;20061;-74
2023/04/29 05:57:18;;;;;;;55.08;24.65;;;;;;;9.11;100.00;101242.25;4999800;28;20069;-74
2023/04/29 05:59:44;;;;;;;51.88;24.15;;;;;;;9.12;100.00;101248.63;4988953;28;20527;-71
2023/04/29 06:02:11;;;;;;;44.35;20.58;;;;;;;9.15;100.00;101258.94;4997202;28;20062;-75
2023/04/29 06:04:39;;;;;;;48.65;22.75;;;;;;;9.14;100.00;101258.13;4996821;28;20132;-75
2023/04/29 06:07:08;;;;;;;46.85;23.70;;;;;;;9.20;100.00;101255.75;4999474;28;20081;-74
2023/04/29 06:09:35;;;;;;;50.55;23.95;;;;;;;9.22;100.00;101273.56;4997837;28;20046;-75
2023/04/29 06:12:02;;;;;;;50.78;23.15;;;;;;;9.26;100.00;101263.25;4996224;28;20058;-74
2023/04/29 06:14:29;;;;;;;55.13;24.67;;;;;;;9.28;100.00;101262.88;4996525;28;20042;-75
2023/04/29 06:16:55;;;;;;;53.03;24.65;;;;;;;9.26;100.00;101262.50;4992993;28;20046;-75
2023/04/29 06:19:23;;;;;;;45.13;22.35;;;;;;;9.26;100.00;101266.03;4994816;28;20061;-75
2023/04/29 06:21:50;;;;;;;47.38;24.17;;;;;;;9.27;100.00;101261.28;4995688;28;20643;-74
2023/04/29 06:24:16;;;;;;;49.75;24.42;;;;;;;9.35;100.00;101280.31;4998308;28;20050;-77
2023/04/29 06:26:43;;;;;;;43.65;23.50;;;;;;;9.37;100.00;101279.94;4995925;28;20145;-74
2023/04/29 06:29:09;;;;;;;39.97;20.55;;;;;;;9.32;100.00;101277.56;5001345;28;20050;-75
2023/04/29 06:31:37;;;;;;;42.03;17.33;;;;;;;9.30;100.00;101286.28;4995603;28;20061;-74
2023/04/29 06:34:04;;;;;;;46.30;22.45;;;;;;;9.32;100.00;101286.66;4987405;28;20141;-74
2023/04/29 06:36:31;;;;;;;42.70;20.20;;;;;;;9.24;100.00;101281.50;4988995;28;20047;-75
2023/04/29 06:38:58;;;;;;;42.03;18.55;;;;;;;9.20;100.00;101295.38;4988144;28;20077;-76
2023/04/29 06:41:25;;;;;;;46.78;23.70;;;;;;;9.23;100.00;101302.13;4991310;28;20054;-75
2023/04/29 06:43:52;;;;;;;45.97;20.25;;;;;;;9.21;100.00;101296.16;4990380;28;20073;-76
2023/04/29 06:46:19;;;;;;;51.75;24.02;;;;;;;9.23;100.00;101304.91;4985638;28;20055;-73
2023/04/29 06:48:46;;;;;;;52.92;23.35;;;;;;;9.25;100.00;101308.09;4983564;28;20057;-73
2023/04/29 06:51:12;;;;;;;51.53;24.33;;;;;;;9.26;100.00;101315.22;4987427;28;20082;-73
2023/04/29 06:53:39;;;;;;;45.17;21.98;;;;;;;9.20;100.00;101322.31;4986063;28;20499;-73
2023/04/29 06:56:06;;;;;;;49.35;23.63;;;;;;;9.23;100.00;101322.34;4985279;28;20076;-75
2023/04/29 06:58:33;;;;;;;48.47;21.83;;;;;;;9.22;100.00;101320.75;5007315;28;20049;-73
2023/04/29 07:00:59;;;;;;;50.90;25.13;;;;;;;9.17;100.00;101325.88;4998178;28;20053;-72
2023/04/29 07:03:26;;;;;;;54.35;24.40;;;;;;;9.15;100.00;101328.28;5007536;28;20128;-76
2023/04/29 07:05:52;;;;;;;52.58;24.92;;;;;;;9.13;100.00;101331.44;4983153;28;20058;-73
2023/04/29 07:08:19;;;;;;;48.50;23.15;;;;;;;9.14;100.00;101341.34;4989433;28;20054;-75
2023/04/29 07:10:54;;;;;;;49.85;23.88;;;;;;;9.16;100.00;101340.94;4983456;28;20356;-76
2023/04/29 07:13:21;;;;;;;53.25;26.35;;;;;;;9.16;100.00;101341.75;4991080;28;20070;-73
2023/04/29 07:15:47;;;;;;;53.92;25.02;;;;;;;9.17;100.00;101345.31;4991798;28;20221;-74
2023/04/29 07:18:14;;;;;;;49.28;24.23;;;;;;;9.12;100.00;101340.16;5006997;28;20160;-74
2023/04/29 07:20:41;;;;;;;53.70;27.95;;;;;;;9.16;100.00;101350.06;4995331;28;20060;-74
2023/04/29 07:23:08;;;;;;;54.80;25.65;;;;;;;9.18;100.00;101353.22;4995121;28;20406;-75
2023/04/29 07:25:34;;;;;;;51.47;26.05;;;;;;;9.15;100.00;101359.56;4995036;28;20046;-74
2023/04/29 07:28:01;;;;;;;54.80;25.38;;;;;;;9.17;100.00;101367.50;5002413;28;20064;-75
2023/04/29 07:30:27;;;;;;;48.35;24.25;;;;;;;9.17;100.00;101361.94;4977973;28;20049;-76
2023/04/29 07:32:54;;;;;;;50.83;23.98;;;;;;;9.21;100.00;101373.84;5007018;28;20112;-74
2023/04/29 07:35:21;;;;;;;53.65;24.30;;;;;;;9.21;100.00;101376.63;4996632;28;20124;-74
2023/04/29 07:37:48;;;;;;;55.45;25.38;;;;;;;9.23;100.00;101380.63;4991440;28;20140;-75
2023/04/29 07:40:14;;;;;;;54.28;25.00;;;;;;;9.25;100.00;101383.00;4988826;28;20054;-74
2023/04/29 07:42:41;;;;;;;58.08;28.50;;;;;;;9.30;100.00;101393.69;4995443;28;20481;-77
2023/04/29 07:45:08;;;;;;;55.97;26.45;;;;;;;9.33;100.00;101399.28;5001544;28;20049;-75
2023/04/29 07:47:34;;;;;;;53.75;24.52;;;;;;;9.32;100.00;101394.88;5001964;28;20393;-75
2023/04/29 07:50:01;;;;;;;54.38;24.10;;;;;;;9.32;100.00;101394.13;4991537;28;20046;-76
2023/04/29 07:52:28;;;;;;;59.03;27.13;;;;;;;9.34;100.00;101402.81;4984212;28;20074;-75
2023/04/29 07:54:55;;;;;;;59.85;28.77;;;;;;;9.34;100.00;101411.16;4991890;28;20050;-73
2023/04/29 07:57:21;;;;;;;53.78;27.27;;;;;;;9.32;100.00;101414.31;4987027;28;20428;-74
2023/04/29 07:59:55;;;;;;;58.70;27.25;;;;;;;9.25;100.00;101417.06;5005115;28;20525;-73
2023/04/29 08:02:22;;;;;;;57.80;26.33;;;;;;;9.31;100.00;101417.47;4998835;28;20057;-74
2023/04/29 08:04:49;;;;;;;57.15;27.02;;;;;;;9.33;100.00;101421.47;4987871;28;20051;-75
2023/04/29 08:07:17;;;;;;;61.33;28.35;;;;;;;9.36;100.00;101425.44;4992223;28;20050;-74
2023/04/29 08:09:44;;;;;;;59.22;27.60;;;;;;;9.36;100.00;101428.97;4995535;28;20441;-75
2023/04/29 08:12:10;;;;;;;61.67;27.70;;;;;;;9.36;100.00;101428.22;4989299;28;20556;-74
2023/04/29 08:14:37;;;;;;;65.22;30.02;;;;;;;9.34;100.00;101436.13;5002458;28;20042;-76
2023/04/29 08:17:03;;;;;;;64.28;27.90;;;;;;;9.37;100.00;101432.56;4987714;28;20054;-75
2023/04/29 08:19:30;;;;;;;62.60;28.05;;;;;;;9.40;100.00;101434.56;4997525;28;20061;-75
2023/04/29 08:21:57;;;;;;;58.10;28.20;;;;;;;9.35;100.00;101427.41;4989295;28;20516;-77
2023/04/29 08:24:23;;;;;;;48.70;21.85;;;;;;;9.34;100.00;101441.66;4983096;28;20054;-75
2023/04/29 08:26:51;;;;;;;61.70;27.65;;;;;;;9.41;100.00;101447.25;4990555;28;20054;-76
2023/04/29 08:29:17;;;;;;;64.70;30.52;;;;;;;9.43;100.00;101447.66;5001260;28;20064;-75
2023/04/29 08:31:44;;;;;;;64.60;28.00;;;;;;;9.43;100.00;101436.56;5002247;28;20050;-74
2023/04/29 08:34:10;;;;;;;61.92;29.58;;;;;;;9.48;100.00;101456.41;5009939;28;20083;-75
2023/04/29 08:36:37;;;;;;;68.43;31.15;;;;;;;9.53;100.00;101453.22;4999373;28;20045;-74
2023/04/29 08:39:04;;;;;;;66.43;31.55;;;;;;;9.48;100.00;101455.59;5007319;28;20058;-74
2023/04/29 08:41:32;;;;;;;72.88;31.15;;;;;;;9.52;100.00;101461.97;4988072;28;20126;-74
2023/04/29 08:43:59;;;;;;;73.60;33.22;;;;;;;9.56;100.00;101463.53;4975915;28;20059;-78
2023/04/29 08:46:26;;;;;;;67.28;31.55;;;;;;;9.60;100.00;101474.66;4990358;28;20050;-75
2023/04/29 08:48:55;;;;;;;65.68;31.33;;;;;;;9.63;100.00;101469.09;4989324;28;20055;-76
2023/04/29 08:51:21;;;;;;;63.58;30.02;;;;;;;9.62;100.00;101466.72;4992419;28;20113;-75
2023/04/29 08:53:48;;;;;;;59.53;26.58;;;;;;;9.62;100.00;101478.63;4996675;28;20241;-75
2023/04/29 08:56:20;;;;;;;63.03;28.35;;;;;;;9.69;100.00;101475.09;4991621;28;20374;-75
2023/04/29 08:58:59;;;;;;;59.25;31.25;;;;;;;9.74;100.00;101480.25;4977097;28;20095;-79
2023/04/29 09:01:28;;;;;;;66.03;29.88;;;;;;;9.74;100.00;101477.47;4975468;28;20143;-76
2023/04/29 09:04:14;;;;;;;67.07;31.05;;;;;;;9.76;100.00;101478.66;4976905;28;20093;-76
2023/04/29 09:06:41;;;;;;;59.28;26.02;;;;;;;9.68;100.00;101471.50;4978805;28;20086;-74
2023/04/29 09:09:08;;;;;;;55.20;27.13;;;;;;;9.73;100.00;101473.91;4978051;28;20148;-76
2023/04/29 09:11:36;;;;;;;60.30;29.48;;;;;;;9.82;100.00;101481.84;4977478;28;20398;-78
2023/04/29 09:14:07;;;;;;;60.17;29.58;;;;;;;9.88;100.00;101475.53;4977959;28;20046;-74
2023/04/29 09:16:36;;;;;;;58.75;27.90;;;;;;;9.97;100.00;101484.25;4980806;28;20188;-76
2023/04/29 09:19:02;;;;;;;59.45;29.33;;;;;;;10.04;100.00;101487.06;4988582;28;20055;-75
2023/04/29 09:21:32;;;;;;;63.22;30.10;;;;;;;10.09;100.00;101496.22;4982707;28;20042;-77
2023/04/29 09:24:01;;;;;;;55.35;27.33;;;;;;;10.13;100.00;101495.00;4992783;28;20072;-76
2023/04/29 09:26:43;;;;;;;52.53;26.73;;;;;;;10.18;100.00;101500.19;4992342;28;20054;-75
2023/04/29 09:29:15;;;;;;;59.03;27.35;;;;;;;10.28;100.00;101506.94;4993401;28;20054;-76
2023/04/29 09:31:42;;;;;;;55.83;26.38;;;;;;;10.32;100.00;101507.72;5001575;28;20061;-74
2023/04/29 09:34:10;;;;;;;56.35;28.73;;;;;;;10.34;100.00;101508.13;4993818;28;20050;-75
2023/04/29 09:36:41;;;;;;;53.20;28.25;;;;;;;10.44;100.00;101513.69;4981443;28;20046;-79
2023/04/29 09:39:12;;;;;;;54.10;25.77;;;;;;;10.44;100.00;101510.94;4975165;28;20054;-75
2023/04/29 09:41:57;;;;;;;52.00;26.42;;;;;;;10.46;100.00;101519.66;4978556;28;20054;-79
2023/04/29 09:44:28;;;;;;;;;;;;;;;10.51;100.00;101521.25;4981423;28;20145;-76
2023/04/29 09:47:01;;;;;;;52.40;25.60;;;;;;;10.61;100.00;101512.91;4978169;28;20077;-77
2023/04/29 09:49:32;;;;;;;52.53;27.38;;;;;;;10.72;100.00;101512.88;4979213;28;20851;-75
2023/04/29 09:52:00;;;;;;;55.65;27.40;;;;;;;10.83;100.00;101522.00;4978818;28;20054;-76
2023/04/29 09:54:30;;;;;;;53.88;27.40;;;;;;;10.93;100.00;101527.53;4975038;28;20424;-76
2023/04/29 09:56:59;;;;;;;53.10;27.70;;;;;;;11.04;100.00;101525.53;4979855;28;20054;-74
2023/04/29 09:59:26;;;;;;;53.90;25.85;;;;;;;11.19;100.00;101526.28;4984764;28;20061;-77
2023/04/29 10:01:54;;;;;;;49.72;25.70;;;;;;;11.23;100.00;101522.34;4992956;28;20054;-74
2023/04/29 10:04:26;;;;;;;49.67;26.70;;;;;;;11.26;100.00;101521.53;4983459;28;20050;-75
2023/04/29 10:06:54;;;;;;;45.58;24.85;;;;;;;11.32;100.00;101525.50;4983550;28;20059;-74
2023/04/29 10:09:22;;;;;;;52.97;26.67;;;;;;;11.36;100.00;101523.47;4978831;28;20046;-77
2023/04/29 10:11:53;;;;;;;44.08;25.15;;;;;;;11.39;100.00;101524.66;4978338;28;20050;-75
2023/04/29 10:14:25;;;;;;;44.30;22.70;;;;;;;11.42;100.00;101530.22;4979849;28;20133;-78
2023/04/29 10:17:23;;;;;;;45.08;25.23;;;;;;;11.46;100.00;101524.63;4978261;28;20054;-75
2023/04/29 10:20:07;;;;;;;47.03;21.48;;;;;;;11.55;100.00;101533.34;4979766;28;20104;-77
2023/04/29 10:22:43;;;;;;;41.47;22.95;;;;;;;11.62;100.00;101531.31;4977580;28;20046;-76
2023/04/29 10:25:10;;;;;;;41.78;23.88;;;;;;;11.66;100.00;101526.53;4975745;28;20042;-78
2023/04/29 10:27:43;;;;;;;41.13;22.13;;;;;;;11.75;100.00;101520.53;4981117;28;20065;-78
2023/04/29 10:30:16;;;;;;;44.50;23.27;;;;;;;11.84;100.00;101529.22;4975970;28;20046;-77
2023/04/29 10:32:44;;;;;;;43.85;22.23;;;;;;;11.92;100.00;101531.53;4977087;28;20054;-74
2023/04/29 10:35:19;;;;;;;39.60;22.10;;;;;;;12.06;100.00;101528.66;4977757;28;20501;-75
2023/04/29 10:37:49;;;;;;;42.20;23.42;;;;;;;12.18;100.00;101535.75;4981157;28;20086;-74
2023/04/29 10:40:41;;;;;;;40.13;21.92;;;;;;;12.21;100.00;101524.59;4981283;28;20046;-76
2023/04/29 10:43:07;;;;;;;41.60;22.05;;;;;;;12.38;100.00;101536.84;4977753;28;20057;-77
2023/04/29 10:45:34;;;;;;;35.03;20.45;;;;;;;12.50;100.00;101541.94;4978722;28;20510;-76
2023/04/29 10:48:01;;;;;;;36.15;22.05;;;;;;;12.57;100.00;101528.69;4996724;28;20116;-74
2023/04/29 10:50:29;;;;;;;37.92;21.17;;;;;;;12.68;100.00;101533.41;5003480;28;20050;-76
2023/04/29 10:52:56;;;;;;;38.88;22.75;;;;;;;12.80;100.00;101532.91;4985458;28;20054;-75
2023/04/29 10:55:23;;;;;;;35.67;20.75;;;;;;;12.87;100.00;101533.63;4994272;28;20602;-75
2023/04/29 10:57:55;;;;;;;34.83;20.23;;;;;;;12.97;100.00;101534.72;5000953;28;20054;-75
2023/04/29 11:00:30;;;;;;;39.33;21.90;;;;;;;13.01;100.00;101536.28;4994080;28;20158;-76
2023/04/29 11:03:01;;;;;;;34.70;17.43;;;;;;;13.06;100.00;101543.41;5003524;28;20050;-76
2023/04/29 11:05:34;;;;;;;39.00;20.85;;;;;;;13.24;100.00;101538.41;4985546;28;20038;-78
2023/04/29 11:08:11;;;;;;;39.60;20.63;;;;;;;13.22;100.00;101546.41;5000847;28;20084;-75
2023/04/29 11:10:43;;;;;;;32.63;18.80;;;;;;;13.20;100.00;101546.03;4989279;28;20046;-77
2023/04/29 11:13:27;;;;;;;31.45;18.80;;;;;;;13.24;100.00;101553.19;5003836;28;20046;-76